Terminal Aerodrome Forecast
Issued by NWS

Home | Current Version | Previous Version | Graphics & Text | Print | Product List | Glossary On
Versions: 1 2 3 4 5 6 7 8 9 10 11 12 13 14 15
000
FTUS43 KUNR 241700
TAFGCC
TAF
KGCC 241720Z 2418/2518 29017KT P6SM SCT030 BKN080
     FM250100 34007KT P6SM BKN060
     FM250900 VRB03KT P6SM SCT015
      TEMPO 2510/2514 4SM BR BKN010=

USA.gov is the U.S. government's official web portal to all federal, state and local government web resources and services.